Time;durP1;ratioP1;P1;durP2;ratioP2;P2;SDS_P1;SDS_P2;PMS_P1;PMS_P2;Temp;Humidity;BMP_temperature;BMP_pressure;BME280_temperature;BME280_humidity;BME280_pressure;Samples;Min_cycle;Max_cycle;Signal;HPM_P1;HPM_P2
2023/01/31 00:02:08;;;;;;;30.65;5.53;;;;;;;;;;5028224;28;20116;-80
2023/01/31 00:04:34;;;;;;;26.38;3.05;;;;;;;;;;5028401;28;20419;-80
2023/01/31 00:07:00;;;;;;;27.40;3.25;;;;;;;;;;5026928;28;20037;-81
2023/01/31 00:09:26;;;;;;;29.30;3.90;;;;;;;;;;5009987;28;20053;-80
2023/01/31 00:11:52;;;;;;;40.63;4.95;;;;;;;;;;5026066;28;20030;-81
2023/01/31 00:14:19;;;;;;;23.67;3.03;;;;;;;;;;5007990;28;20050;-80
2023/01/31 00:16:45;;;;;;;22.67;4.22;;;;;;;;;;5024882;28;20064;-80
2023/01/31 00:19:11;;;;;;;29.92;3.83;;;;;;;;;;5026716;28;20041;-80
2023/01/31 00:21:42;;;;;;;17.92;2.67;;;;;;;;;;5007405;28;20363;-80
2023/01/31 00:24:08;;;;;;;29.85;3.25;;;;;;;;;;5023883;28;20053;-82
2023/01/31 00:26:35;;;;;;;24.58;3.60;;;;;;;;;;5025701;28;20026;-81
2023/01/31 00:29:03;;;;;;;30.15;3.40;;;;;;;;;;5028685;28;20033;-82
2023/01/31 00:31:30;;;;;;;22.98;3.75;;;;;;;;;;5025451;28;20504;-81
2023/01/31 00:33:56;;;;;;;20.80;3.35;;;;;;;;;;5028750;28;20040;-82
2023/01/31 00:36:26;;;;;;;29.02;2.70;;;;;;;;;;5029564;28;20478;-81
2023/01/31 00:38:54;;;;;;;15.15;2.40;;;;;;;;;;5028284;28;20041;-81
2023/01/31 00:41:20;;;;;;;26.48;3.15;;;;;;;;;;5028349;28;20375;-81
2023/01/31 00:43:47;;;;;;;24.25;4.05;;;;;;;;;;5029987;28;20073;-81
2023/01/31 00:46:13;;;;;;;17.80;2.83;;;;;;;;;;5028740;28;20026;-81
2023/01/31 00:48:39;;;;;;;20.80;2.78;;;;;;;;;;5025455;28;20053;-81
2023/01/31 00:51:05;;;;;;;21.70;3.33;;;;;;;;;;5028568;28;20029;-82
2023/01/31 00:53:31;;;;;;;32.58;3.33;;;;;;;;;;5026767;28;20029;-81
2023/01/31 00:56:06;;;;;;;25.10;3.30;;;;;;;;;;5028838;28;20059;-81
2023/01/31 00:58:32;;;;;;;21.25;3.80;;;;;;;;;;5026317;28;20040;-82
2023/01/31 01:01:04;;;;;;;21.85;3.17;;;;;;;;;;5027248;28;20072;-82
2023/01/31 01:03:31;;;;;;;23.85;2.60;;;;;;;;;;5025747;28;20064;-82
2023/01/31 01:05:57;;;;;;;34.60;4.18;;;;;;;;;;5026739;28;20037;-83
2023/01/31 01:08:23;;;;;;;24.10;3.90;;;;;;;;;;5025401;28;20030;-82
2023/01/31 01:10:49;;;;;;;24.60;2.95;;;;;;;;;;5026823;28;20148;-81
2023/01/31 01:13:15;;;;;;;27.85;3.78;;;;;;;;;;5023050;28;20033;-80
2023/01/31 01:15:41;;;;;;;18.13;3.42;;;;;;;;;;5024375;28;20073;-80
2023/01/31 01:18:07;;;;;;;16.27;3.33;;;;;;;;;;5029354;28;20029;-81
2023/01/31 01:20:34;;;;;;;31.08;3.45;;;;;;;;;;5026281;28;20117;-80
2023/01/31 01:23:01;;;;;;;20.60;3.45;;;;;;;;;;5024956;28;20025;-81
2023/01/31 01:25:27;;;;;;;27.42;4.18;;;;;;;;;;5027221;28;20038;-80
2023/01/31 01:27:53;;;;;;;19.17;3.65;;;;;;;;;;5023751;28;20041;-79
2023/01/31 01:30:20;;;;;;;18.98;2.70;;;;;;;;;;5025956;28;20026;-81
2023/01/31 01:32:46;;;;;;;23.55;2.58;;;;;;;;;;5026385;28;20042;-79
2023/01/31 01:35:12;;;;;;;31.17;3.15;;;;;;;;;;5027179;28;20048;-81
2023/01/31 01:37:38;;;;;;;30.70;3.83;;;;;;;;;;5025139;28;20025;-81
2023/01/31 01:40:04;;;;;;;18.40;2.50;;;;;;;;;;5026337;28;20470;-82
2023/01/31 01:42:33;;;;;;;29.60;7.30;;;;;;;;;;5026800;28;20071;-81
2023/01/31 01:45:00;;;;;;;15.82;2.53;;;;;;;;;;5025679;28;20083;-81
2023/01/31 01:47:35;;;;;;;16.10;2.83;;;;;;;;;;5025693;28;20033;-81
2023/01/31 01:50:16;;;;;;;21.88;2.10;;;;;;;;;;5025752;28;20032;-81
2023/01/31 01:52:47;;;;;;;23.25;2.47;;;;;;;;;;5023455;28;20021;-81
2023/01/31 01:55:19;;;;;;;17.70;3.03;;;;;;;;;;5027199;28;20030;-81
2023/01/31 01:57:46;;;;;;;28.52;2.67;;;;;;;;;;5027148;28;20587;-81
2023/01/31 02:00:14;;;;;;;22.83;3.35;;;;;;;;;;5029199;28;20065;-80
2023/01/31 02:02:40;;;;;;;22.15;2.42;;;;;;;;;;5024565;28;20037;-80
2023/01/31 02:05:07;;;;;;;27.17;2.75;;;;;;;;;;5027400;28;20116;-82
2023/01/31 02:07:34;;;;;;;16.65;1.75;;;;;;;;;;5023802;28;20029;-84
2023/01/31 02:10:11;;;;;;;23.73;3.25;;;;;;;;;;5022027;28;20033;-81
2023/01/31 02:12:38;;;;;;;19.13;2.42;;;;;;;;;;5030736;28;20083;-79
2023/01/31 02:15:05;;;;;;;28.48;2.38;;;;;;;;;;5032643;28;20057;-80
2023/01/31 02:17:31;;;;;;;18.10;3.38;;;;;;;;;;5029838;28;20028;-79
2023/01/31 02:20:06;;;;;;;19.40;2.35;;;;;;;;;;5034370;28;20041;-79
2023/01/31 02:22:42;;;;;;;23.63;3.40;;;;;;;;;;5030744;28;20438;-79
2023/01/31 02:25:11;;;;;;;26.42;2.63;;;;;;;;;;5031460;28;20028;-80
2023/01/31 02:27:50;;;;;;;28.73;3.35;;;;;;;;;;5035558;28;20055;-79
2023/01/31 02:30:34;;;;;;;16.05;2.70;;;;;;;;;;5032243;28;20516;-79
2023/01/31 02:33:23;;;;;;;22.10;2.42;;;;;;;;;;5030970;28;20026;-79
2023/01/31 02:35:55;;;;;;;26.92;3.80;;;;;;;;;;5034793;28;20025;-78
2023/01/31 02:38:24;;;;;;;23.00;3.05;;;;;;;;;;5031040;28;20029;-79
2023/01/31 02:41:06;;;;;;;18.65;3.05;;;;;;;;;;5029641;28;20441;-79
2023/01/31 02:46:34;;;;;;;17.38;3.58;;;;;;;;;;5013688;28;20120;-79
2023/01/31 02:49:06;;;;;;;19.92;2.95;;;;;;;;;;5036461;28;20116;-79
2023/01/31 02:51:34;;;;;;;14.80;4.18;;;;;;;;;;5031746;28;20075;-78
2023/01/31 02:54:21;;;;;;;37.92;6.50;;;;;;;;;;5033348;28;20487;-79
2023/01/31 02:56:48;;;;;;;19.70;4.68;;;;;;;;;;5032723;28;20048;-80
2023/01/31 02:59:25;;;;;;;22.70;2.58;;;;;;;;;;5032639;28;20037;-80
2023/01/31 03:01:56;;;;;;;32.05;3.80;;;;;;;;;;5033517;28;20163;-79
2023/01/31 03:04:22;;;;;;;41.22;4.15;;;;;;;;;;5030596;28;20025;-80
2023/01/31 03:06:53;;;;;;;24.40;3.08;;;;;;;;;;5034059;28;20026;-81
2023/01/31 03:09:37;;;;;;;24.75;3.25;;;;;;;;;;5031956;28;20061;-80
2023/01/31 03:12:09;;;;;;;32.15;4.70;;;;;;;;;;5028654;28;20034;-80
2023/01/31 03:14:35;;;;;;;16.63;3.35;;;;;;;;;;5031920;28;20068;-80
2023/01/31 03:19:57;;;;;;;24.77;2.30;;;;;;;;;;5034978;28;20445;-79
2023/01/31 03:22:29;;;;;;;24.08;2.72;;;;;;;;;;5029249;28;20029;-79
2023/01/31 03:24:56;;;;;;;15.07;3.05;;;;;;;;;;5031531;28;20057;-79
2023/01/31 03:27:23;;;;;;;28.15;4.38;;;;;;;;;;5029026;28;20029;-78
2023/01/31 03:29:49;;;;;;;22.38;3.67;;;;;;;;;;5028365;28;20029;-79
2023/01/31 03:32:18;;;;;;;20.48;3.42;;;;;;;;;;5026924;28;20025;-79
2023/01/31 03:34:44;;;;;;;27.52;4.35;;;;;;;;;;5027820;28;20026;-79
2023/01/31 03:37:11;;;;;;;28.70;4.28;;;;;;;;;;5026196;28;20030;-79
2023/01/31 03:39:53;;;;;;;31.80;4.18;;;;;;;;;;5028714;28;20076;-79
2023/01/31 03:42:31;;;;;;;21.50;3.40;;;;;;;;;;5025880;28;20025;-79
2023/01/31 03:44:57;;;;;;;27.75;5.68;;;;;;;;;;5028837;28;20037;-79
2023/01/31 03:47:25;;;;;;;28.67;5.38;;;;;;;;;;5027722;28;20037;-79
2023/01/31 03:49:53;;;;;;;37.63;5.68;;;;;;;;;;5029258;28;20144;-79
2023/01/31 03:52:23;;;;;;;36.58;5.13;;;;;;;;;;5027707;28;20018;-79
2023/01/31 03:54:53;;;;;;;27.60;4.65;;;;;;;;;;5029658;28;20030;-79
2023/01/31 03:57:24;;;;;;;34.83;5.22;;;;;;;;;;5027760;28;20025;-79
2023/01/31 03:59:54;;;;;;;46.70;6.45;;;;;;;;;;5029474;28;20037;-79
2023/01/31 04:02:21;;;;;;;32.38;4.85;;;;;;;;;;5027346;28;20018;-79
2023/01/31 04:04:54;;;;;;;34.15;5.78;;;;;;;;;;5027457;28;20088;-79
2023/01/31 04:07:21;;;;;;;26.88;3.42;;;;;;;;;;5029616;28;20022;-80
2023/01/31 04:09:47;;;;;;;30.73;4.07;;;;;;;;;;5027887;28;20053;-80
2023/01/31 04:12:14;;;;;;;31.20;4.47;;;;;;;;;;5024998;28;20041;-80
2023/01/31 04:14:41;;;;;;;25.40;3.78;;;;;;;;;;5028474;28;20482;-80
2023/01/31 04:17:07;;;;;;;35.85;4.93;;;;;;;;;;5027558;28;21028;-80
2023/01/31 04:19:33;;;;;;;39.80;4.60;;;;;;;;;;5027498;28;20359;-79
2023/01/31 04:21:59;;;;;;;31.25;6.30;;;;;;;;;;5026891;28;20394;-79
2023/01/31 04:24:25;;;;;;;30.45;5.82;;;;;;;;;;5028392;28;20120;-79
2023/01/31 04:26:51;;;;;;;38.53;6.25;;;;;;;;;;5028786;28;20041;-78
2023/01/31 04:29:17;;;;;;;28.63;5.25;;;;;;;;;;5028212;28;20478;-79
2023/01/31 04:31:45;;;;;;;35.20;4.72;;;;;;;;;;5022450;28;20064;-78
2023/01/31 04:34:11;;;;;;;35.35;5.35;;;;;;;;;;5025632;28;20037;-79
2023/01/31 04:36:37;;;;;;;35.17;4.55;;;;;;;;;;5028407;28;20033;-78
2023/01/31 04:39:03;;;;;;;37.55;5.50;;;;;;;;;;5028380;28;20076;-79
2023/01/31 04:41:29;;;;;;;27.30;4.30;;;;;;;;;;5029399;28;20104;-79
2023/01/31 04:43:55;;;;;;;34.55;4.38;;;;;;;;;;5026258;28;20041;-79
2023/01/31 04:46:22;;;;;;;27.08;5.22;;;;;;;;;;5025501;28;20060;-79
2023/01/31 04:48:48;;;;;;;40.65;5.55;;;;;;;;;;5028232;28;20026;-78
2023/01/31 04:51:14;;;;;;;34.70;6.30;;;;;;;;;;5025397;28;20400;-79
2023/01/31 04:53:40;;;;;;;31.42;5.47;;;;;;;;;;5027381;28;20026;-79
2023/01/31 04:56:06;;;;;;;26.00;5.20;;;;;;;;;;5022798;28;20025;-78
2023/01/31 04:58:32;;;;;;;35.92;5.85;;;;;;;;;;5022727;28;20064;-78
2023/01/31 05:00:58;;;;;;;46.38;5.93;;;;;;;;;;5026440;28;20370;-79
2023/01/31 05:03:24;;;;;;;30.60;5.70;;;;;;;;;;5018981;28;20414;-77
2023/01/31 05:05:50;;;;;;;32.00;4.45;;;;;;;;;;5024467;28;20712;-79
2023/01/31 05:08:17;;;;;;;40.85;6.97;;;;;;;;;;5026646;28;20120;-81
2023/01/31 05:10:43;;;;;;;48.13;5.88;;;;;;;;;;5024840;28;20029;-78
2023/01/31 05:13:09;;;;;;;29.13;4.38;;;;;;;;;;5022718;28;20583;-80
2023/01/31 05:15:37;;;;;;;38.35;5.40;;;;;;;;;;5019064;28;20049;-76
2023/01/31 05:18:03;;;;;;;33.72;6.38;;;;;;;;;;5020130;28;20095;-77
2023/01/31 05:20:30;;;;;;;39.50;4.78;;;;;;;;;;5024782;28;20037;-79
2023/01/31 05:22:57;;;;;;;42.30;4.93;;;;;;;;;;5013671;28;20052;-77
2023/01/31 05:25:23;;;;;;;35.85;5.10;;;;;;;;;;5001464;28;20474;-80
2023/01/31 05:27:49;;;;;;;33.60;4.68;;;;;;;;;;5018380;28;20045;-78
2023/01/31 05:30:15;;;;;;;41.25;6.00;;;;;;;;;;5000889;28;20030;-78
2023/01/31 05:32:44;;;;;;;31.13;4.63;;;;;;;;;;5020878;28;20211;-79
2023/01/31 05:35:10;;;;;;;31.95;5.38;;;;;;;;;;5026403;28;20459;-79
2023/01/31 05:37:36;;;;;;;37.42;6.18;;;;;;;;;;5025587;28;20099;-81
2023/01/31 05:40:02;;;;;;;26.42;5.78;;;;;;;;;;5024047;28;20033;-76
2023/01/31 05:42:28;;;;;;;40.42;6.60;;;;;;;;;;5023999;28;20032;-76
2023/01/31 05:44:54;;;;;;;39.60;5.63;;;;;;;;;;5024841;28;20565;-78
2023/01/31 05:47:23;;;;;;;26.42;4.50;;;;;;;;;;5025686;28;20079;-78
2023/01/31 05:49:49;;;;;;;35.28;4.95;;;;;;;;;;5005680;28;20060;-80
2023/01/31 05:52:15;;;;;;;31.50;5.28;;;;;;;;;;5023697;28;20561;-79
2023/01/31 05:54:41;;;;;;;28.45;4.60;;;;;;;;;;5022602;28;20461;-79
2023/01/31 05:57:07;;;;;;;36.70;5.00;;;;;;;;;;5024873;28;20045;-77
2023/01/31 05:59:33;;;;;;;36.72;5.30;;;;;;;;;;5022541;28;20265;-79
2023/01/31 06:02:00;;;;;;;35.63;6.45;;;;;;;;;;5021306;28;20034;-81
2023/01/31 06:04:26;;;;;;;35.17;5.90;;;;;;;;;;5016007;28;20030;-80
2023/01/31 06:06:52;;;;;;;32.13;6.80;;;;;;;;;;5024781;28;20064;-78
2023/01/31 06:09:18;;;;;;;41.63;8.02;;;;;;;;;;5023942;28;20662;-79
2023/01/31 06:11:44;;;;;;;31.55;5.55;;;;;;;;;;5024752;28;20060;-80
2023/01/31 06:14:10;;;;;;;37.17;5.28;;;;;;;;;;5025212;28;20446;-80
2023/01/31 06:16:36;;;;;;;33.97;5.30;;;;;;;;;;5020739;28;20037;-81
2023/01/31 06:19:02;;;;;;;41.10;6.70;;;;;;;;;;5025738;28;20065;-81
2023/01/31 06:21:28;;;;;;;36.22;7.45;;;;;;;;;;5020261;28;20034;-77
2023/01/31 06:23:54;;;;;;;33.90;4.72;;;;;;;;;;5018804;28;20018;-77
2023/01/31 06:26:20;;;;;;;32.90;4.90;;;;;;;;;;5023537;28;20053;-78
2023/01/31 06:28:47;;;;;;;34.45;4.07;;;;;;;;;;5023655;28;20045;-77
2023/01/31 06:31:13;;;;;;;31.83;4.40;;;;;;;;;;5026224;28;20037;-79
2023/01/31 06:33:39;;;;;;;31.48;6.32;;;;;;;;;;5019996;28;20338;-79
2023/01/31 06:36:05;;;;;;;32.80;4.68;;;;;;;;;;5026881;28;20026;-81
2023/01/31 06:38:31;;;;;;;29.60;5.20;;;;;;;;;;5023636;28;20046;-79
2023/01/31 06:40:57;;;;;;;32.95;4.68;;;;;;;;;;5024620;28;20045;-78
2023/01/31 06:43:23;;;;;;;31.65;4.82;;;;;;;;;;5026862;28;20386;-78
2023/01/31 06:45:49;;;;;;;36.65;7.65;;;;;;;;;;5017275;28;20121;-78
2023/01/31 06:48:16;;;;;;;30.15;4.60;;;;;;;;;;5025144;28;20056;-79
2023/01/31 06:50:42;;;;;;;44.88;5.20;;;;;;;;;;5032476;28;20036;-79
2023/01/31 06:53:08;;;;;;;41.90;4.53;;;;;;;;;;5006893;28;20173;-82
2023/01/31 06:55:34;;;;;;;24.67;3.88;;;;;;;;;;5029775;28;20100;-80
2023/01/31 06:58:00;;;;;;;29.00;5.20;;;;;;;;;;5029517;28;20025;-82
2023/01/31 07:00:26;;;;;;;30.73;4.15;;;;;;;;;;5032431;28;20036;-80
2023/01/31 07:02:54;;;;;;;31.02;5.25;;;;;;;;;;5026024;28;20037;-80
2023/01/31 07:05:20;;;;;;;21.33;3.30;;;;;;;;;;5030719;28;20034;-81
2023/01/31 07:07:48;;;;;;;29.77;3.88;;;;;;;;;;5032860;28;20025;-80
2023/01/31 07:10:14;;;;;;;24.10;3.30;;;;;;;;;;5030479;28;20063;-80
2023/01/31 07:12:40;;;;;;;29.08;6.07;;;;;;;;;;5029291;28;20108;-80
2023/01/31 07:15:07;;;;;;;20.13;4.65;;;;;;;;;;5030181;28;20092;-80
2023/01/31 07:17:33;;;;;;;28.95;3.90;;;;;;;;;;5034415;28;20578;-80
2023/01/31 07:19:59;;;;;;;29.52;4.50;;;;;;;;;;5031742;28;20355;-81
2023/01/31 07:22:25;;;;;;;28.38;3.40;;;;;;;;;;5032040;28;20087;-80
2023/01/31 07:24:51;;;;;;;32.50;4.43;;;;;;;;;;5026203;28;20026;-80
2023/01/31 07:27:17;;;;;;;24.77;4.00;;;;;;;;;;5032358;28;20089;-80
2023/01/31 07:29:44;;;;;;;36.50;4.50;;;;;;;;;;5031754;28;20119;-80
2023/01/31 07:32:10;;;;;;;27.98;5.18;;;;;;;;;;5031841;28;20029;-80
2023/01/31 07:34:36;;;;;;;28.48;4.88;;;;;;;;;;5030246;28;20486;-80
2023/01/31 07:37:02;;;;;;;30.38;4.25;;;;;;;;;;5032891;28;20021;-82
2023/01/31 07:39:29;;;;;;;23.48;2.97;;;;;;;;;;5034492;28;20075;-80
2023/01/31 07:41:55;;;;;;;19.98;3.35;;;;;;;;;;5031931;28;20022;-80
2023/01/31 07:44:21;;;;;;;18.42;3.22;;;;;;;;;;5025541;28;20462;-80
2023/01/31 07:46:47;;;;;;;26.65;3.40;;;;;;;;;;5026770;28;20029;-79
2023/01/31 07:49:13;;;;;;;23.70;3.15;;;;;;;;;;5032543;28;20068;-80
2023/01/31 07:51:39;;;;;;;20.35;3.05;;;;;;;;;;5032439;28;20038;-80
2023/01/31 07:54:06;;;;;;;26.60;2.83;;;;;;;;;;5026875;28;20025;-81
2023/01/31 07:56:32;;;;;;;16.13;3.33;;;;;;;;;;5028557;28;20041;-80
2023/01/31 07:58:59;;;;;;;21.25;3.42;;;;;;;;;;5032191;28;20029;-80
2023/01/31 08:04:12;;;;;;;29.48;4.03;;;;;;;;;;5030423;28;20410;-81
2023/01/31 08:06:39;;;;;;;20.98;3.17;;;;;;;;;;5032170;28;20037;-82
2023/01/31 08:09:05;;;;;;;18.27;3.00;;;;;;;;;;5030874;28;20073;-80
2023/01/31 08:11:32;;;;;;;15.52;3.17;;;;;;;;;;5030508;28;20049;-80
2023/01/31 08:13:58;;;;;;;15.80;2.80;;;;;;;;;;5028963;28;20083;-80
2023/01/31 08:16:24;;;;;;;21.85;2.63;;;;;;;;;;5025356;28;20061;-79
2023/01/31 08:18:51;;;;;;;22.02;4.43;;;;;;;;;;5027767;28;20034;-78
2023/01/31 08:21:18;;;;;;;22.20;3.80;;;;;;;;;;5009794;28;20034;-79
2023/01/31 08:23:44;;;;;;;24.98;3.00;;;;;;;;;;5020532;28;20095;-79
2023/01/31 08:26:16;;;;;;;15.13;3.10;;;;;;;;;;5022029;28;20100;-80
2023/01/31 08:28:43;;;;;;;29.07;5.20;;;;;;;;;;5020202;28;20433;-79
2023/01/31 08:31:12;;;;;;;24.58;2.78;;;;;;;;;;5029175;28;20075;-80
2023/01/31 08:33:38;;;;;;;16.15;3.15;;;;;;;;;;5026748;28;20037;-78
2023/01/31 08:36:08;;;;;;;27.58;6.32;;;;;;;;;;5025485;28;20025;-79
2023/01/31 08:38:34;;;;;;;26.33;3.95;;;;;;;;;;5030319;28;20033;-80
2023/01/31 08:41:00;;;;;;;25.17;3.47;;;;;;;;;;5026636;28;20029;-80
2023/01/31 08:43:26;;;;;;;22.23;2.88;;;;;;;;;;5032131;28;20542;-81
2023/01/31 08:45:56;;;;;;;20.88;3.80;;;;;;;;;;5025459;28;20044;-81
2023/01/31 08:48:23;;;;;;;23.70;3.15;;;;;;;;;;5004946;28;20083;-80
2023/01/31 08:50:49;;;;;;;19.33;3.22;;;;;;;;;;5028920;28;20145;-81
2023/01/31 08:53:15;;;;;;;32.65;4.40;;;;;;;;;;5022585;28;20123;-82
2023/01/31 08:55:41;;;;;;;22.73;3.20;;;;;;;;;;5028824;28;20423;-81
2023/01/31 08:58:07;;;;;;;18.17;3.47;;;;;;;;;;5034009;28;20449;-81
2023/01/31 09:00:33;;;;;;;20.13;3.35;;;;;;;;;;5026092;28;20040;-81
2023/01/31 09:03:00;;;;;;;20.27;3.63;;;;;;;;;;5023525;28;20081;-79
2023/01/31 09:05:29;;;;;;;32.05;5.55;;;;;;;;;;5010710;28;20033;-80
2023/01/31 09:07:55;;;;;;;26.35;3.58;;;;;;;;;;5028197;28;20033;-78
2023/01/31 09:10:21;;;;;;;25.80;4.50;;;;;;;;;;5030054;28;20544;-80
2023/01/31 09:12:48;;;;;;;20.75;4.93;;;;;;;;;;5021496;28;20116;-79
2023/01/31 09:15:14;;;;;;;25.17;3.60;;;;;;;;;;5030945;28;20058;-79
2023/01/31 09:17:41;;;;;;;21.30;3.28;;;;;;;;;;5030362;28;20517;-79
2023/01/31 09:20:09;;;;;;;22.83;4.57;;;;;;;;;;5023808;28;20037;-82
2023/01/31 09:22:35;;;;;;;28.08;3.88;;;;;;;;;;5024207;28;20044;-78
2023/01/31 09:25:01;;;;;;;25.17;3.72;;;;;;;;;;5030500;28;20104;-79
2023/01/31 09:27:28;;;;;;;27.17;4.60;;;;;;;;;;5027547;28;20066;-80
2023/01/31 09:29:54;;;;;;;34.08;4.65;;;;;;;;;;5031713;28;20033;-79
2023/01/31 09:32:20;;;;;;;30.80;4.68;;;;;;;;;;5028111;28;20041;-79
2023/01/31 09:34:48;;;;;;;25.65;4.30;;;;;;;;;;5030339;28;20113;-78
2023/01/31 09:37:14;;;;;;;28.15;4.72;;;;;;;;;;5035623;28;20030;-79
2023/01/31 09:39:40;;;;;;;30.33;4.40;;;;;;;;;;5035335;28;20040;-79
2023/01/31 09:42:06;;;;;;;27.17;4.50;;;;;;;;;;5028911;28;20033;-79
2023/01/31 09:44:35;;;;;;;23.08;4.20;;;;;;;;;;5028580;28;20029;-78
2023/01/31 09:47:04;;;;;;;28.33;4.65;;;;;;;;;;5025094;28;20036;-78
2023/01/31 09:49:32;;;;;;;30.55;4.28;;;;;;;;;;5029084;28;20178;-78
2023/01/31 09:52:00;;;;;;;24.85;3.85;;;;;;;;;;5024076;28;20364;-80
2023/01/31 09:54:33;;;;;;;29.17;5.28;;;;;;;;;;5016314;28;20053;-78
2023/01/31 09:57:19;;;;;;;27.95;4.53;;;;;;;;;;5030652;28;20037;-81
2023/01/31 09:59:50;;;;;;;30.90;4.55;;;;;;;;;;4994448;28;20041;-77
2023/01/31 10:02:22;;;;;;;36.30;6.20;;;;;;;;;;5017480;28;20034;-80
2023/01/31 10:04:56;;;;;;;24.73;4.55;;;;;;;;;;5026792;28;20037;-79
2023/01/31 10:07:30;;;;;;;27.15;5.78;;;;;;;;;;5029689;28;20045;-81
2023/01/31 10:10:20;;;;;;;28.35;5.25;;;;;;;;;;5014917;28;20045;-82
2023/01/31 10:12:49;;;;;;;27.33;5.00;;;;;;;;;;5029669;28;20655;-85
2023/01/31 10:15:24;;;;;;;28.92;4.30;;;;;;;;;;5029677;28;20046;-83
2023/01/31 10:17:55;;;;;;;39.55;4.82;;;;;;;;;;5027112;28;20046;-84
2023/01/31 10:20:26;;;;;;;24.42;3.88;;;;;;;;;;5031521;28;20363;-83
2023/01/31 10:23:01;;;;;;;27.65;3.80;;;;;;;;;;5032939;28;20030;-84
2023/01/31 10:25:30;;;;;;;28.55;4.97;;;;;;;;;;5032345;28;20391;-83
2023/01/31 10:28:11;;;;;;;30.58;4.25;;;;;;;;;;5027706;28;20467;-86
2023/01/31 10:30:46;;;;;;;33.08;4.38;;;;;;;;;;5032995;28;20033;-84
2023/01/31 10:33:28;;;;;;;31.70;4.82;;;;;;;;;;5024692;28;20036;-81
2023/01/31 10:35:56;;;;;;;36.65;5.18;;;;;;;;;;5030758;28;20474;-82
2023/01/31 10:38:22;;;;;;;27.65;4.60;;;;;;;;;;5032543;28;20376;-86
2023/01/31 10:40:50;;;;;;;24.67;4.22;;;;;;;;;;5024554;28;20479;-77
2023/01/31 10:43:19;;;;;;;36.63;4.00;;;;;;;;;;5031293;28;20037;-82
2023/01/31 10:45:45;;;;;;;25.48;3.67;;;;;;;;;;5037278;28;20026;-85
2023/01/31 10:48:18;;;;;;;28.70;5.80;;;;;;;;;;5041790;28;20021;-77
2023/01/31 10:50:52;;;;;;;25.58;3.97;;;;;;;;;;5040127;28;20482;-84
2023/01/31 10:53:27;;;;;;;21.08;3.20;;;;;;;;;;5038011;28;20037;-79
2023/01/31 10:55:59;;;;;;;26.45;4.55;;;;;;;;;;5012918;28;20474;-85
2023/01/31 10:58:26;;;;;;;27.17;5.00;;;;;;;;;;5036201;28;20048;-84
2023/01/31 11:00:52;;;;;;;35.78;3.78;;;;;;;;;;5035155;28;20104;-83
2023/01/31 11:03:18;;;;;;;19.60;3.33;;;;;;;;;;5035979;28;20163;-84
2023/01/31 11:05:52;;;;;;;25.27;4.10;;;;;;;;;;5007947;28;20038;-80
2023/01/31 11:08:25;;;;;;;26.95;4.90;;;;;;;;;;5020929;28;20083;-81
2023/01/31 11:10:53;;;;;;;31.52;4.60;;;;;;;;;;5011420;28;20033;-85
2023/01/31 11:13:19;;;;;;;26.90;3.92;;;;;;;;;;5032916;28;20069;-81
2023/01/31 11:15:47;;;;;;;35.08;4.95;;;;;;;;;;5031861;28;20045;-85
2023/01/31 11:18:25;;;;;;;23.95;3.65;;;;;;;;;;5030351;28;20116;-84
2023/01/31 11:20:52;;;;;;;43.20;6.90;;;;;;;;;;5037697;28;20037;-85
2023/01/31 11:23:22;;;;;;;33.60;4.80;;;;;;;;;;5028742;28;20030;-83
2023/01/31 11:25:49;;;;;;;28.58;4.85;;;;;;;;;;5030254;28;20017;-79
2023/01/31 11:28:33;;;;;;;24.25;3.17;;;;;;;;;;5031971;28;20033;-79
2023/01/31 11:31:00;;;;;;;20.73;3.70;;;;;;;;;;5033172;28;20361;-87
2023/01/31 11:33:39;;;;;;;34.78;3.80;;;;;;;;;;5019431;28;20539;-81
2023/01/31 11:36:10;;;;;;;28.42;5.35;;;;;;;;;;5031306;28;20026;-80
2023/01/31 11:38:36;;;;;;;19.60;3.70;;;;;;;;;;5030935;28;20047;-79
2023/01/31 11:41:07;;;;;;;24.23;4.40;;;;;;;;;;5019686;28;20844;-81
2023/01/31 11:43:33;;;;;;;25.00;4.20;;;;;;;;;;5020412;28;20117;-82
2023/01/31 11:46:01;;;;;;;24.73;4.03;;;;;;;;;;5034232;28;20280;-79
2023/01/31 11:48:27;;;;;;;24.20;4.50;;;;;;;;;;5030871;28;20029;-81
2023/01/31 11:51:02;;;;;;;85.93;36.45;;;;;;;;;;5033714;28;20037;-86
2023/01/31 11:53:34;;;;;;;30.63;3.85;;;;;;;;;;5035075;28;20021;-84
2023/01/31 11:56:12;;;;;;;25.23;3.83;;;;;;;;;;5029188;28;20497;-83
2023/01/31 11:58:39;;;;;;;23.80;3.83;;;;;;;;;;5032127;28;20034;-84
2023/01/31 12:01:14;;;;;;;27.33;3.67;;;;;;;;;;5032216;28;20036;-84
2023/01/31 12:03:45;;;;;;;23.77;2.60;;;;;;;;;;5025822;28;20025;-84
2023/01/31 12:06:25;;;;;;;25.08;4.45;;;;;;;;;;5030851;28;20049;-84
2023/01/31 12:08:53;;;;;;;19.35;3.63;;;;;;;;;;5029721;28;20114;-85
2023/01/31 12:11:19;;;;;;;27.50;4.20;;;;;;;;;;5033672;28;20033;-82
2023/01/31 12:13:46;;;;;;;19.75;3.40;;;;;;;;;;5024678;28;20037;-83
2023/01/31 12:16:13;;;;;;;27.85;4.78;;;;;;;;;;5029258;28;20049;-83
2023/01/31 12:18:39;;;;;;;21.45;3.17;;;;;;;;;;5033278;28;20407;-83
2023/01/31 12:21:15;;;;;;;25.95;5.45;;;;;;;;;;5032573;28;20026;-83
2023/01/31 12:24:00;;;;;;;29.33;4.68;;;;;;;;;;5030016;28;20545;-83
2023/01/31 12:26:38;;;;;;;29.83;3.72;;;;;;;;;;5032908;28;20048;-83
2023/01/31 12:29:24;;;;;;;14.20;2.83;;;;;;;;;;5031875;28;20090;-83
2023/01/31 12:32:14;;;;;;;22.52;3.45;;;;;;;;;;5030690;28;20036;-83
2023/01/31 12:34:58;;;;;;;25.23;3.65;;;;;;;;;;5030693;28;20037;-83
2023/01/31 12:37:34;;;;;;;21.00;3.22;;;;;;;;;;5032579;28;20040;-83
2023/01/31 12:40:03;;;;;;;23.48;3.65;;;;;;;;;;5036006;28;20130;-83
2023/01/31 12:42:32;;;;;;;26.05;4.32;;;;;;;;;;5038317;28;20021;-83
2023/01/31 12:45:07;;;;;;;19.42;4.22;;;;;;;;;;5033602;28;20052;-83
2023/01/31 12:47:45;;;;;;;22.25;4.63;;;;;;;;;;5029361;28;20037;-81
2023/01/31 12:50:17;;;;;;;31.70;3.80;;;;;;;;;;5030756;28;20094;-82
2023/01/31 12:52:52;;;;;;;21.17;4.50;;;;;;;;;;5032169;28;20033;-82
2023/01/31 12:55:36;;;;;;;26.70;3.83;;;;;;;;;;5031212;28;20037;-82
2023/01/31 12:58:12;;;;;;;20.40;4.90;;;;;;;;;;5032525;28;20028;-83
2023/01/31 13:00:45;;;;;;;20.83;5.53;;;;;;;;;;5031450;28;20079;-82
2023/01/31 13:03:32;;;;;;;24.95;3.92;;;;;;;;;;5031016;28;20453;-83
2023/01/31 13:06:05;;;;;;;21.10;4.45;;;;;;;;;;5030783;28;20052;-83
2023/01/31 13:08:32;;;;;;;26.05;4.93;;;;;;;;;;5012539;28;20030;-82
2023/01/31 13:11:01;;;;;;;22.25;4.00;;;;;;;;;;5025987;28;20393;-83
2023/01/31 13:13:30;;;;;;;22.33;3.10;;;;;;;;;;5029604;28;20056;-82
2023/01/31 13:16:02;;;;;;;24.88;3.30;;;;;;;;;;5023526;28;20057;-82
2023/01/31 13:18:30;;;;;;;23.58;5.28;;;;;;;;;;5020216;28;20041;-82
2023/01/31 13:20:57;;;;;;;23.67;4.35;;;;;;;;;;5031998;28;20031;-83
2023/01/31 13:23:43;;;;;;;20.73;4.38;;;;;;;;;;5029880;28;20103;-82
2023/01/31 13:26:13;;;;;;;27.65;3.75;;;;;;;;;;5031098;28;20041;-82
2023/01/31 13:28:56;;;;;;;22.95;3.88;;;;;;;;;;5030564;28;20060;-82
2023/01/31 13:31:45;;;;;;;20.30;3.92;;;;;;;;;;5030468;28;20094;-82
2023/01/31 13:34:28;;;;;;;27.30;3.70;;;;;;;;;;4985375;28;20033;-82
2023/01/31 13:36:54;;;;;;;;;;;;;;;;;;5029018;28;20048;-82
2023/01/31 13:39:26;;;;;;;20.85;3.47;;;;;;;;;;5030562;28;20060;-81
2023/01/31 13:41:52;;;;;;;21.88;3.85;;;;;;;;;;5031403;28;20030;-81
2023/01/31 13:44:19;;;;;;;23.63;4.35;;;;;;;;;;5030637;28;20466;-82
2023/01/31 13:46:51;;;;;;;19.98;3.72;;;;;;;;;;5029814;28;20026;-82
2023/01/31 13:49:33;;;;;;;18.65;3.00;;;;;;;;;;5031458;28;20082;-81
2023/01/31 13:52:00;;;;;;;24.40;5.50;;;;;;;;;;5029330;28;20021;-82
2023/01/31 13:54:35;;;;;;;17.98;3.15;;;;;;;;;;5030380;28;20065;-82
2023/01/31 13:57:01;;;;;;;18.75;2.58;;;;;;;;;;5030673;28;20025;-82
2023/01/31 13:59:29;;;;;;;23.58;3.70;;;;;;;;;;5013794;28;20061;-82
2023/01/31 14:01:56;;;;;;;20.95;3.38;;;;;;;;;;5031083;28;20438;-83
2023/01/31 14:04:28;;;;;;;24.77;3.65;;;;;;;;;;5030161;28;20028;-83
2023/01/31 14:06:53;;;;;;;17.33;2.50;;;;;;;;;;5030622;28;20030;-82
2023/01/31 14:09:27;;;;;;;24.02;4.78;;;;;;;;;;5026833;28;20288;-82
2023/01/31 14:11:57;;;;;;;33.75;3.63;;;;;;;;;;5031353;28;20037;-82
2023/01/31 14:14:40;;;;;;;18.88;3.15;;;;;;;;;;5027822;28;20375;-82
2023/01/31 14:17:25;;;;;;;26.48;4.20;;;;;;;;;;5031368;28;20264;-82
2023/01/31 14:19:54;;;;;;;25.58;4.43;;;;;;;;;;5029495;28;20042;-82
2023/01/31 14:22:30;;;;;;;25.85;3.97;;;;;;;;;;5030478;28;20029;-81
2023/01/31 14:25:00;;;;;;;27.38;3.60;;;;;;;;;;5027851;28;20034;-81
2023/01/31 14:27:29;;;;;;;18.13;3.30;;;;;;;;;;5031185;28;20037;-82
2023/01/31 14:30:18;;;;;;;28.63;3.70;;;;;;;;;;5018303;28;20026;-81
2023/01/31 14:33:05;;;;;;;33.28;4.75;;;;;;;;;;5020552;28;20095;-82
2023/01/31 14:35:31;;;;;;;29.17;4.40;;;;;;;;;;5024894;28;20075;-81
2023/01/31 14:38:03;;;;;;;21.65;3.45;;;;;;;;;;5030231;28;20399;-82
2023/01/31 14:40:31;;;;;;;25.13;4.18;;;;;;;;;;5030081;28;20025;-81
2023/01/31 14:43:16;;;;;;;28.42;5.85;;;;;;;;;;5029590;28;20034;-82
2023/01/31 14:45:42;;;;;;;24.63;3.88;;;;;;;;;;5028415;28;20095;-82
2023/01/31 14:48:11;;;;;;;32.28;5.18;;;;;;;;;;5030760;28;20458;-82
2023/01/31 14:50:43;;;;;;;28.10;4.45;;;;;;;;;;5030294;28;20068;-82
2023/01/31 14:53:09;;;;;;;;;;;;;;;;;;5028623;28;20546;-82